Arklow Spray — C6VK8 — position and weather

sailwx.info

Track history (hours):
 
Tides and Currents Weather Stations Pressure Air Temp Water Temp Dewpoint Dewpoint Depression Visibility Wind Speed Wind Dir Waves Ship Positions

Arklow Spray

Last reported at 2014-Sep-17 13:26 UTC. Time now 2014-Sep-19 03:44 UTC.
Position N 50°35' E 000°17'.

Length 90 m; draft 5 m.

Type: Cargo ship. MMSI: 309914000.

Date/timePositionNaut miles runAvg speedWind from/ knotsBaromVisibWave heightAir tempDewpointWater temp
2014-Sep-17 13:26N 50°35' E 000°17'910.1
2014-Sep-17 12:30N 50°37' E 000°31'1010.8
2014-Sep-17 11:33N 50°43' E 000°45'2711.2
2014-Sep-17 09:08N 50°60' E 001°19'711.0
2014-Sep-17 08:30N 51°05' E 001°26'8 8.9
2014-Sep-17 07:33N 51°09' E 001°37'9 9.3
2014-Sep-17 06:33N 51°16' E 001°47'10 9.8
2014-Sep-17 05:33N 51°25' E 001°53'1010.3
2014-Sep-17 04:33N 51°33' E 002°04'1111.0
2014-Sep-17 03:33N 51°41' E 002°17'1111.5
2014-Sep-17 02:33N 51°50' E 002°29'3511.5
2014-Sep-16 23:28N 52°16' E 003°07'38 9.6
2014-Sep-16 19:30N 52°31' E 004°05'1010.4
2014-Sep-16 18:33N 52°30' E 004°21'10 9.6
2014-Sep-16 17:33N 52°28' E 004°36'4 4.4
2014-Sep-16 16:34N 52°26' E 004°43'6 6.4
2014-Sep-16 15:34N 52°24' E 004°52'0 0.3
2014-Sep-16 14:31N 52°24' E 004°52'0 0.0
2014-Sep-16 13:31N 52°24' E 004°52'0 0.0
2014-Sep-16 12:31N 52°24' E 004°52'0 0.0
2014-Sep-16 11:31N 52°24' E 004°52'0 0.0
2014-Sep-16 10:31N 52°24' E 004°52'0 0.0
2014-Sep-16 09:31N 52°24' E 004°52'0 0.0
2014-Sep-16 08:31N 52°24' E 004°52'0 0.0
2014-Sep-16 07:31N 52°24' E 004°52'0 0.1
2014-Sep-16 06:31N 52°24' E 004°52'0 0.0
2014-Sep-16 05:33N 52°24' E 004°52'0 0.0
2014-Sep-16 04:33N 52°24' E 004°52'0 0.0
2014-Sep-16 03:33N 52°24' E 004°52'3 3.4
2014-Sep-16 02:34N 52°26' E 004°47'7 7.1
2014-Sep-16 01:33N 52°28' E 004°36'9 8.6
2014-Sep-16 00:33N 52°28' E 004°22'1110.8
2014-Sep-15 23:33N 52°28' E 004°04'10 9.7
2014-Sep-15 22:33N 52°22' E 003°52'1111.4
2014-Sep-15 21:34N 52°11' E 003°54'1010.4
2014-Sep-15 20:33N 52°01' E 003°59'1111.1
2014-Sep-15 19:33N 51°55' E 004°15'9 9.3
2014-Sep-15 18:33N 51°55' E 004°30'3 2.3
2014-Sep-15 17:19N 51°54' E 004°34'0 0.0
2014-Sep-15 16:31N 51°54' E 004°34'0 0.0
2014-Sep-15 15:09N 51°54' E 004°34'0 0.0
2014-Sep-15 14:22N 51°54' E 004°34'0 0.0
2014-Sep-15 13:33N 51°54' E 004°34'0 0.0
2014-Sep-15 12:12N 51°54' E 004°34'0 0.0
2014-Sep-15 11:33N 51°54' E 004°34'0 0.0
2014-Sep-15 10:33N 51°54' E 004°34'0 0.0
2014-Sep-15 09:33N 51°54' E 004°34'0 0.0
2014-Sep-15 08:33N 51°54' E 004°34'0 0.0
2014-Sep-15 07:33N 51°54' E 004°34'0 0.0
2014-Sep-15 06:27N 51°54' E 004°34'0 0.0
2014-Sep-15 05:33N 51°54' E 004°34'0 0.0
2014-Sep-15 04:33N 51°54' E 004°34'0 0.0
2014-Sep-15 03:33N 51°54' E 004°34'0 0.0
2014-Sep-15 02:33N 51°54' E 004°34'0 0.0
2014-Sep-15 01:33N 51°54' E 004°34'0 0.0
2014-Sep-15 00:33N 51°54' E 004°34'0 0.0
2014-Sep-14 23:27N 51°54' E 004°34'0 0.0
2014-Sep-14 22:24N 51°54' E 004°34'0 0.0
2014-Sep-14 21:27N 51°54' E 004°34'0 0.0
2014-Sep-14 20:33N 51°54' E 004°34'0 0.0
2014-Sep-14 19:33N 51°54' E 004°34'0 0.0
2014-Sep-14 18:33N 51°54' E 004°34'0 0.0
2014-Sep-14 17:33N 51°54' E 004°34'0 0.0
2014-Sep-14 16:30N 51°54' E 004°34'0 0.0
2014-Sep-14 15:33N 51°54' E 004°34'0 0.0
2014-Sep-14 14:30N 51°54' E 004°34'0 0.0
2014-Sep-14 13:33N 51°54' E 004°34'0 0.0
2014-Sep-14 12:27N 51°54' E 004°34'0 0.0
2014-Sep-14 11:33N 51°54' E 004°34'0 0.0
2014-Sep-14 10:33N 51°54' E 004°34'0 0.0
2014-Sep-14 09:33N 51°54' E 004°34'0 0.0
2014-Sep-14 08:33N 51°54' E 004°34'0 0.0
2014-Sep-14 07:33N 51°54' E 004°34'0 0.0
2014-Sep-14 06:33N 51°54' E 004°34'0 0.0
2014-Sep-14 05:33N 51°54' E 004°34'0 0.0
2014-Sep-14 04:32N 51°54' E 004°34'0 0.0
2014-Sep-14 03:32N 51°54' E 004°34'0 0.0
2014-Sep-14 02:33N 51°54' E 004°34'0 0.0
2014-Sep-14 01:33N 51°54' E 004°34'0 0.0
2014-Sep-13 21:32N 51°54' E 004°34'0 0.0
2014-Sep-13 20:32N 51°54' E 004°34'0 0.0
2014-Sep-13 19:26N 51°54' E 004°34'0 0.0
2014-Sep-13 18:26N 51°54' E 004°34'0 0.0
2014-Sep-13 17:32N 51°54' E 004°34'0 0.0
2014-Sep-13 16:29N 51°54' E 004°34'0 0.0
2014-Sep-13 15:29N 51°54' E 004°34'0 0.0
2014-Sep-13 14:32N 51°54' E 004°34'0 0.0
2014-Sep-13 13:32N 51°54' E 004°34'0 0.0
2014-Sep-13 12:29N 51°54' E 004°34'0 0.0
2014-Sep-13 11:32N 51°54' E 004°34'0 0.0
2014-Sep-13 10:32N 51°54' E 004°34'0 0.0
2014-Sep-13 09:32N 51°54' E 004°34'0 0.0
2014-Sep-13 08:32N 51°54' E 004°34'0 0.0
2014-Sep-13 07:32N 51°54' E 004°34'0 0.0
2014-Sep-13 06:32N 51°54' E 004°34'0 0.0
2014-Sep-13 05:32N 51°54' E 004°34'0 0.0
2014-Sep-13 04:32N 51°54' E 004°34'0 0.0
2014-Sep-13 03:32N 51°54' E 004°34'0 0.0
2014-Sep-13 02:32N 51°54' E 004°34'0 0.0
2014-Sep-13 01:32N 51°54' E 004°34'0 0.0
2014-Sep-13 00:32N 51°54' E 004°34'0 0.0
2014-Sep-12 23:32N 51°54' E 004°34'0 0.0
2014-Sep-12 22:32N 51°54' E 004°34'0 0.0
2014-Sep-12 21:32N 51°54' E 004°34'0 0.0
2014-Sep-12 20:26N 51°54' E 004°34'0 0.0
2014-Sep-12 19:32N 51°54' E 004°34'0 0.0
2014-Sep-12 18:32N 51°54' E 004°34'0 0.0
2014-Sep-12 17:29N 51°54' E 004°34'0 0.0
2014-Sep-12 16:31N 51°54' E 004°34'0 0.0
2014-Sep-12 15:29N 51°54' E 004°34'0 0.0
2014-Sep-12 14:25N 51°54' E 004°34'0 0.0
2014-Sep-12 13:31N 51°54' E 004°34'0 0.0
2014-Sep-12 12:31N 51°54' E 004°34'0 0.0
2014-Sep-12 11:31N 51°54' E 004°34'0 0.0
2014-Sep-12 10:31N 51°54' E 004°34'0 0.0
2014-Sep-12 09:31N 51°54' E 004°34'0 0.0
2014-Sep-12 08:28N 51°54' E 004°34'0 0.0
2014-Sep-12 07:31N 51°54' E 004°34'0 0.0
2014-Sep-12 06:31N 51°54' E 004°34'0 0.0
2014-Sep-12 05:31N 51°54' E 004°34'0 0.0
2014-Sep-12 04:31N 51°54' E 004°34'0 0.0
2014-Sep-12 03:28N 51°54' E 004°34'0 0.0
2014-Sep-12 02:31N 51°54' E 004°34'0 0.0
2014-Sep-12 01:31N 51°54' E 004°34'0 0.0
2014-Sep-12 00:28N 51°54' E 004°34'0 0.0
2014-Sep-11 23:28N 51°54' E 004°34'0 0.0
2014-Sep-11 22:31N 51°54' E 004°34'0 0.0
2014-Sep-11 21:28N 51°54' E 004°34'0 0.0
2014-Sep-11 20:25N 51°54' E 004°34'0 0.0
2014-Sep-11 19:22N 51°54' E 004°34'0 0.0
2014-Sep-11 18:31N 51°54' E 004°34'0 0.0
2014-Sep-11 17:31N 51°54' E 004°34'0 0.0
2014-Sep-11 16:31N 51°54' E 004°34'0 0.0
2014-Sep-11 15:31N 51°54' E 004°34'0 0.0
2014-Sep-11 14:31N 51°54' E 004°34'0 0.0
2014-Sep-11 13:25N 51°54' E 004°34'0 0.0
2014-Sep-11 12:31N 51°54' E 004°34'0 0.0
2014-Sep-11 11:28N 51°54' E 004°34'0 0.0
2014-Sep-11 10:31N 51°54' E 004°34'0 0.0
2014-Sep-11 09:31N 51°54' E 004°34'0 0.0
2014-Sep-11 08:31N 51°54' E 004°34'0 0.0
2014-Sep-11 07:31N 51°54' E 004°34'0 0.0
2014-Sep-11 06:34N 51°54' E 004°34'0 0.0
2014-Sep-11 05:33N 51°54' E 004°34'0 0.0
2014-Sep-11 04:33N 51°54' E 004°34'0 0.0
2014-Sep-11 03:33N 51°54' E 004°34'0 0.0
2014-Sep-11 02:33N 51°54' E 004°34'0 0.0
2014-Sep-11 01:33N 51°54' E 004°34'0 0.0
2014-Sep-11 00:33N 51°54' E 004°34'0 0.0
2014-Sep-10 23:33N 51°54' E 004°34'0 0.0
2014-Sep-10 22:21N 51°54' E 004°34'0 0.0
2014-Sep-10 21:33N 51°54' E 004°34'0 0.0
2014-Sep-10 20:27N 51°54' E 004°34'0 0.0
2014-Sep-10 19:24N 51°54' E 004°34'0 0.0
2014-Sep-10 18:24N 51°54' E 004°34'0 0.0
2014-Sep-10 17:33N 51°54' E 004°34'0 0.0
2014-Sep-10 16:33N 51°54' E 004°34'0 0.0
2014-Sep-10 15:24N 51°54' E 004°34'0 0.0
2014-Sep-10 14:24N 51°54' E 004°34'0 0.0
2014-Sep-10 13:24N 51°54' E 004°34'0 0.0
2014-Sep-10 12:27N 51°54' E 004°34'0 0.0
2014-Sep-10 11:33N 51°54' E 004°34'0 0.0
2014-Sep-10 10:30N 51°54' E 004°34'0 0.0
2014-Sep-10 09:33N 51°54' E 004°34'0 0.0
2014-Sep-10 08:33N 51°54' E 004°34'0 0.0
2014-Sep-10 07:33N 51°54' E 004°34'0 0.0
2014-Sep-10 06:33N 51°54' E 004°34'0 0.0
2014-Sep-10 05:33N 51°54' E 004°34'0 0.0
2014-Sep-10 04:33N 51°54' E 004°34'0 0.0
2014-Sep-10 03:33N 51°54' E 004°34'0 0.0
2014-Sep-10 02:33N 51°54' E 004°34'0 0.0
2014-Sep-10 01:33N 51°54' E 004°34'0 0.0
2014-Sep-10 00:33N 51°54' E 004°34'0 0.0
2014-Sep-09 23:30N 51°54' E 004°34'0 0.0
2014-Sep-09 22:33N 51°54' E 004°34'0 0.0
2014-Sep-09 21:30N 51°54' E 004°34'0 0.0
2014-Sep-09 20:33N 51°54' E 004°34'0 0.0
2014-Sep-09 19:30N 51°54' E 004°34'0 0.0
2014-Sep-09 18:27N 51°54' E 004°34'0 0.0
2014-Sep-09 17:26N 51°54' E 004°34'0 0.0
2014-Sep-09 16:26N 51°54' E 004°34'0 0.0
2014-Sep-09 15:26N 51°54' E 004°34'0 0.0
2014-Sep-09 14:23N 51°54' E 004°34'0 0.0
2014-Sep-09 13:32N 51°54' E 004°34'0 0.0
2014-Sep-09 12:29N 51°54' E 004°34'0 0.0
2014-Sep-09 11:32N 51°54' E 004°34'0 0.0
2014-Sep-07 17:32N 51°54' E 004°34'0 0.0
2014-Sep-07 16:32N 51°54' E 004°34'0 0.0
2014-Sep-07 15:26N 51°54' E 004°34'0 0.0
2014-Sep-07 14:32N 51°54' E 004°34'0 0.0
2014-Sep-07 13:32N 51°54' E 004°34'  
Track history (hours):
 
Tides and Currents Weather Stations Pressure Air Temp Water Temp Dewpoint Dewpoint Depression Visibility Wind Speed Wind Dir Waves Ship Positions

Arklow Spray

Last reported at 2014-Sep-17 13:26 UTC. Time now 2014-Sep-19 03:44 UTC.
Position N 50°35' E 000°17'.

Length 90 m; draft 5 m.

Type: Cargo ship. MMSI: 309914000.

Date/timePositionNaut miles runAvg speedWind from/ knotsBaromVisibWave heightAir tempDewpointWater temp
2014-Sep-17 13:26N 50°35' E 000°17'910.1
2014-Sep-17 12:30N 50°37' E 000°31'1010.8
2014-Sep-17 11:33N 50°43' E 000°45'2711.2
2014-Sep-17 09:08N 50°60' E 001°19'711.0
2014-Sep-17 08:30N 51°05' E 001°26'8 8.9
2014-Sep-17 07:33N 51°09' E 001°37'9 9.3
2014-Sep-17 06:33N 51°16' E 001°47'10 9.8
2014-Sep-17 05:33N 51°25' E 001°53'1010.3
2014-Sep-17 04:33N 51°33' E 002°04'1111.0
2014-Sep-17 03:33N 51°41' E 002°17'1111.5
2014-Sep-17 02:33N 51°50' E 002°29'3511.5
2014-Sep-16 23:28N 52°16' E 003°07'38 9.6
2014-Sep-16 19:30N 52°31' E 004°05'1010.4
2014-Sep-16 18:33N 52°30' E 004°21'10 9.6
2014-Sep-16 17:33N 52°28' E 004°36'4 4.4
2014-Sep-16 16:34N 52°26' E 004°43'6 6.4
2014-Sep-16 15:34N 52°24' E 004°52'0 0.3
2014-Sep-16 14:31N 52°24' E 004°52'0 0.0
2014-Sep-16 13:31N 52°24' E 004°52'0 0.0
2014-Sep-16 12:31N 52°24' E 004°52'0 0.0
2014-Sep-16 11:31N 52°24' E 004°52'0 0.0
2014-Sep-16 10:31N 52°24' E 004°52'0 0.0
2014-Sep-16 09:31N 52°24' E 004°52'0 0.0
2014-Sep-16 08:31N 52°24' E 004°52'0 0.0
2014-Sep-16 07:31N 52°24' E 004°52'0 0.1
2014-Sep-16 06:31N 52°24' E 004°52'0 0.0
2014-Sep-16 05:33N 52°24' E 004°52'0 0.0
2014-Sep-16 04:33N 52°24' E 004°52'0 0.0
2014-Sep-16 03:33N 52°24' E 004°52'3 3.4
2014-Sep-16 02:34N 52°26' E 004°47'7 7.1
2014-Sep-16 01:33N 52°28' E 004°36'9 8.6
2014-Sep-16 00:33N 52°28' E 004°22'1110.8
2014-Sep-15 23:33N 52°28' E 004°04'10 9.7
2014-Sep-15 22:33N 52°22' E 003°52'1111.4
2014-Sep-15 21:34N 52°11' E 003°54'1010.4
2014-Sep-15 20:33N 52°01' E 003°59'1111.1
2014-Sep-15 19:33N 51°55' E 004°15'9 9.3
2014-Sep-15 18:33N 51°55' E 004°30'3 2.3
2014-Sep-15 17:19N 51°54' E 004°34'0 0.0
2014-Sep-15 16:31N 51°54' E 004°34'0 0.0
2014-Sep-15 15:09N 51°54' E 004°34'0 0.0
2014-Sep-15 14:22N 51°54' E 004°34'0 0.0
2014-Sep-15 13:33N 51°54' E 004°34'0 0.0
2014-Sep-15 12:12N 51°54' E 004°34'0 0.0
2014-Sep-15 11:33N 51°54' E 004°34'0 0.0
2014-Sep-15 10:33N 51°54' E 004°34'0 0.0
2014-Sep-15 09:33N 51°54' E 004°34'0 0.0
2014-Sep-15 08:33N 51°54' E 004°34'0 0.0
2014-Sep-15 07:33N 51°54' E 004°34'0 0.0
2014-Sep-15 06:27N 51°54' E 004°34'0 0.0
2014-Sep-15 05:33N 51°54' E 004°34'0 0.0
2014-Sep-15 04:33N 51°54' E 004°34'0 0.0
2014-Sep-15 03:33N 51°54' E 004°34'0 0.0
2014-Sep-15 02:33N 51°54' E 004°34'0 0.0
2014-Sep-15 01:33N 51°54' E 004°34'0 0.0
2014-Sep-15 00:33N 51°54' E 004°34'0 0.0
2014-Sep-14 23:27N 51°54' E 004°34'0 0.0
2014-Sep-14 22:24N 51°54' E 004°34'0 0.0
2014-Sep-14 21:27N 51°54' E 004°34'0 0.0
2014-Sep-14 20:33N 51°54' E 004°34'0 0.0
2014-Sep-14 19:33N 51°54' E 004°34'0 0.0
2014-Sep-14 18:33N 51°54' E 004°34'0 0.0
2014-Sep-14 17:33N 51°54' E 004°34'0 0.0
2014-Sep-14 16:30N 51°54' E 004°34'0 0.0
2014-Sep-14 15:33N 51°54' E 004°34'0 0.0
2014-Sep-14 14:30N 51°54' E 004°34'0 0.0
2014-Sep-14 13:33N 51°54' E 004°34'0 0.0
2014-Sep-14 12:27N 51°54' E 004°34'0 0.0
2014-Sep-14 11:33N 51°54' E 004°34'0 0.0
2014-Sep-14 10:33N 51°54' E 004°34'0 0.0
2014-Sep-14 09:33N 51°54' E 004°34'0 0.0
2014-Sep-14 08:33N 51°54' E 004°34'0 0.0
2014-Sep-14 07:33N 51°54' E 004°34'0 0.0
2014-Sep-14 06:33N 51°54' E 004°34'0 0.0
2014-Sep-14 05:33N 51°54' E 004°34'0 0.0
2014-Sep-14 04:32N 51°54' E 004°34'0 0.0
2014-Sep-14 03:32N 51°54' E 004°34'0 0.0
2014-Sep-14 02:33N 51°54' E 004°34'0 0.0
2014-Sep-14 01:33N 51°54' E 004°34'0 0.0
2014-Sep-13 21:32N 51°54' E 004°34'0 0.0
2014-Sep-13 20:32N 51°54' E 004°34'0 0.0
2014-Sep-13 19:26N 51°54' E 004°34'0 0.0
2014-Sep-13 18:26N 51°54' E 004°34'0 0.0
2014-Sep-13 17:32N 51°54' E 004°34'0 0.0
2014-Sep-13 16:29N 51°54' E 004°34'0 0.0
2014-Sep-13 15:29N 51°54' E 004°34'0 0.0
2014-Sep-13 14:32N 51°54' E 004°34'0 0.0
2014-Sep-13 13:32N 51°54' E 004°34'0 0.0
2014-Sep-13 12:29N 51°54' E 004°34'0 0.0
2014-Sep-13 11:32N 51°54' E 004°34'0 0.0
2014-Sep-13 10:32N 51°54' E 004°34'0 0.0
2014-Sep-13 09:32N 51°54' E 004°34'0 0.0
2014-Sep-13 08:32N 51°54' E 004°34'0 0.0
2014-Sep-13 07:32N 51°54' E 004°34'0 0.0
2014-Sep-13 06:32N 51°54' E 004°34'0 0.0
2014-Sep-13 05:32N 51°54' E 004°34'0 0.0
2014-Sep-13 04:32N 51°54' E 004°34'0 0.0
2014-Sep-13 03:32N 51°54' E 004°34'0 0.0
2014-Sep-13 02:32N 51°54' E 004°34'0 0.0
2014-Sep-13 01:32N 51°54' E 004°34'0 0.0
2014-Sep-13 00:32N 51°54' E 004°34'0 0.0
2014-Sep-12 23:32N 51°54' E 004°34'0 0.0
2014-Sep-12 22:32N 51°54' E 004°34'0 0.0
2014-Sep-12 21:32N 51°54' E 004°34'0 0.0
2014-Sep-12 20:26N 51°54' E 004°34'0 0.0
2014-Sep-12 19:32N 51°54' E 004°34'0 0.0
2014-Sep-12 18:32N 51°54' E 004°34'0 0.0
2014-Sep-12 17:29N 51°54' E 004°34'0 0.0
2014-Sep-12 16:31N 51°54' E 004°34'0 0.0
2014-Sep-12 15:29N 51°54' E 004°34'0 0.0
2014-Sep-12 14:25N 51°54' E 004°34'0 0.0
2014-Sep-12 13:31N 51°54' E 004°34'0 0.0
2014-Sep-12 12:31N 51°54' E 004°34'0 0.0
2014-Sep-12 11:31N 51°54' E 004°34'0 0.0
2014-Sep-12 10:31N 51°54' E 004°34'0 0.0
2014-Sep-12 09:31N 51°54' E 004°34'0 0.0
2014-Sep-12 08:28N 51°54' E 004°34'0 0.0
2014-Sep-12 07:31N 51°54' E 004°34'0 0.0
2014-Sep-12 06:31N 51°54' E 004°34'0 0.0
2014-Sep-12 05:31N 51°54' E 004°34'0 0.0
2014-Sep-12 04:31N 51°54' E 004°34'0 0.0
2014-Sep-12 03:28N 51°54' E 004°34'0 0.0
2014-Sep-12 02:31N 51°54' E 004°34'0 0.0
2014-Sep-12 01:31N 51°54' E 004°34'0 0.0
2014-Sep-12 00:28N 51°54' E 004°34'0 0.0
2014-Sep-11 23:28N 51°54' E 004°34'0 0.0
2014-Sep-11 22:31N 51°54' E 004°34'0 0.0
2014-Sep-11 21:28N 51°54' E 004°34'0 0.0
2014-Sep-11 20:25N 51°54' E 004°34'0 0.0
2014-Sep-11 19:22N 51°54' E 004°34'0 0.0
2014-Sep-11 18:31N 51°54' E 004°34'0 0.0
2014-Sep-11 17:31N 51°54' E 004°34'0 0.0
2014-Sep-11 16:31N 51°54' E 004°34'0 0.0
2014-Sep-11 15:31N 51°54' E 004°34'0 0.0
2014-Sep-11 14:31N 51°54' E 004°34'0 0.0
2014-Sep-11 13:25N 51°54' E 004°34'0 0.0
2014-Sep-11 12:31N 51°54' E 004°34'0 0.0
2014-Sep-11 11:28N 51°54' E 004°34'0 0.0
2014-Sep-11 10:31N 51°54' E 004°34'0 0.0
2014-Sep-11 09:31N 51°54' E 004°34'0 0.0
2014-Sep-11 08:31N 51°54' E 004°34'0 0.0
2014-Sep-11 07:31N 51°54' E 004°34'0 0.0
2014-Sep-11 06:34N 51°54' E 004°34'0 0.0
2014-Sep-11 05:33N 51°54' E 004°34'0 0.0
2014-Sep-11 04:33N 51°54' E 004°34'0 0.0
2014-Sep-11 03:33N 51°54' E 004°34'0 0.0
2014-Sep-11 02:33N 51°54' E 004°34'0 0.0
2014-Sep-11 01:33N 51°54' E 004°34'0 0.0
2014-Sep-11 00:33N 51°54' E 004°34'0 0.0
2014-Sep-10 23:33N 51°54' E 004°34'0 0.0
2014-Sep-10 22:21N 51°54' E 004°34'0 0.0
2014-Sep-10 21:33N 51°54' E 004°34'0 0.0
2014-Sep-10 20:27N 51°54' E 004°34'0 0.0
2014-Sep-10 19:24N 51°54' E 004°34'0 0.0
2014-Sep-10 18:24N 51°54' E 004°34'0 0.0
2014-Sep-10 17:33N 51°54' E 004°34'0 0.0
2014-Sep-10 16:33N 51°54' E 004°34'0 0.0
2014-Sep-10 15:24N 51°54' E 004°34'0 0.0
2014-Sep-10 14:24N 51°54' E 004°34'0 0.0
2014-Sep-10 13:24N 51°54' E 004°34'0 0.0
2014-Sep-10 12:27N 51°54' E 004°34'0 0.0
2014-Sep-10 11:33N 51°54' E 004°34'0 0.0
2014-Sep-10 10:30N 51°54' E 004°34'0 0.0
2014-Sep-10 09:33N 51°54' E 004°34'0 0.0
2014-Sep-10 08:33N 51°54' E 004°34'0 0.0
2014-Sep-10 07:33N 51°54' E 004°34'0 0.0
2014-Sep-10 06:33N 51°54' E 004°34'0 0.0
2014-Sep-10 05:33N 51°54' E 004°34'0 0.0
2014-Sep-10 04:33N 51°54' E 004°34'0 0.0
2014-Sep-10 03:33N 51°54' E 004°34'0 0.0
2014-Sep-10 02:33N 51°54' E 004°34'0 0.0
2014-Sep-10 01:33N 51°54' E 004°34'0 0.0
2014-Sep-10 00:33N 51°54' E 004°34'0 0.0
2014-Sep-09 23:30N 51°54' E 004°34'0 0.0
2014-Sep-09 22:33N 51°54' E 004°34'0 0.0
2014-Sep-09 21:30N 51°54' E 004°34'0 0.0
2014-Sep-09 20:33N 51°54' E 004°34'0 0.0
2014-Sep-09 19:30N 51°54' E 004°34'0 0.0
2014-Sep-09 18:27N 51°54' E 004°34'0 0.0
2014-Sep-09 17:26N 51°54' E 004°34'0 0.0
2014-Sep-09 16:26N 51°54' E 004°34'0 0.0
2014-Sep-09 15:26N 51°54' E 004°34'0 0.0
2014-Sep-09 14:23N 51°54' E 004°34'0 0.0
2014-Sep-09 13:32N 51°54' E 004°34'0 0.0
2014-Sep-09 12:29N 51°54' E 004°34'0 0.0
2014-Sep-09 11:32N 51°54' E 004°34'0 0.0
2014-Sep-07 17:32N 51°54' E 004°34'0 0.0
2014-Sep-07 16:32N 51°54' E 004°34'0 0.0
2014-Sep-07 15:26N 51°54' E 004°34'0 0.0
2014-Sep-07 14:32N 51°54' E 004°34'0 0.0
2014-Sep-07 13:32N 51°54' E 004°34'  

Dump ship's entire track history